sensor_id;sensor_type;location;lat;lon;timestamp;P1;durP1;ratioP1;P2;durP2;ratioP2
37971;SDS011;23794;48.234;8.344;2023-10-08T00:00:48;10.40;;;3.20;;
37971;SDS011;23794;48.234;8.344;2023-10-08T00:03:16;6.05;;;2.85;;
37971;SDS011;23794;48.234;8.344;2023-10-08T00:05:49;9.77;;;3.15;;
37971;SDS011;23794;48.234;8.344;2023-10-08T00:08:16;8.38;;;2.67;;
37971;SDS011;23794;48.234;8.344;2023-10-08T00:10:44;10.18;;;2.85;;
37971;SDS011;23794;48.234;8.344;2023-10-08T00:13:12;8.18;;;2.97;;
37971;SDS011;23794;48.234;8.344;2023-10-08T00:15:42;6.90;;;2.60;;
37971;SDS011;23794;48.234;8.344;2023-10-08T00:18:20;13.65;;;3.25;;
37971;SDS011;23794;48.234;8.344;2023-10-08T00:20:51;9.07;;;2.47;;
37971;SDS011;23794;48.234;8.344;2023-10-08T00:23:24;6.55;;;2.35;;
37971;SDS011;23794;48.234;8.344;2023-10-08T00:25:55;7.68;;;2.75;;
37971;SDS011;23794;48.234;8.344;2023-10-08T00:28:22;6.72;;;2.50;;
37971;SDS011;23794;48.234;8.344;2023-10-08T00:30:49;5.60;;;2.33;;
37971;SDS011;23794;48.234;8.344;2023-10-08T00:33:16;7.00;;;2.60;;
37971;SDS011;23794;48.234;8.344;2023-10-08T00:35:43;7.30;;;3.03;;
37971;SDS011;23794;48.234;8.344;2023-10-08T00:38:11;11.55;;;3.72;;
37971;SDS011;23794;48.234;8.344;2023-10-08T00:40:41;7.82;;;3.05;;
37971;SDS011;23794;48.234;8.344;2023-10-08T00:46:00;9.32;;;2.83;;
37971;SDS011;23794;48.234;8.344;2023-10-08T00:48:31;8.90;;;2.33;;
37971;SDS011;23794;48.234;8.344;2023-10-08T00:51:03;6.55;;;2.47;;
37971;SDS011;23794;48.234;8.344;2023-10-08T00:53:57;5.55;;;2.50;;
37971;SDS011;23794;48.234;8.344;2023-10-08T00:56:33;7.88;;;2.58;;
37971;SDS011;23794;48.234;8.344;2023-10-08T00:59:12;4.40;;;1.95;;
37971;SDS011;23794;48.234;8.344;2023-10-08T01:01:44;10.20;;;2.72;;
37971;SDS011;23794;48.234;8.344;2023-10-08T01:04:26;10.45;;;2.17;;
37971;SDS011;23794;48.234;8.344;2023-10-08T01:06:53;7.28;;;2.10;;
37971;SDS011;23794;48.234;8.344;2023-10-08T01:09:26;5.22;;;2.28;;
37971;SDS011;23794;48.234;8.344;2023-10-08T01:12:14;6.18;;;1.92;;
37971;SDS011;23794;48.234;8.344;2023-10-08T01:17:23;6.78;;;2.58;;
37971;SDS011;23794;48.234;8.344;2023-10-08T01:19:51;7.07;;;2.30;;
37971;SDS011;23794;48.234;8.344;2023-10-08T01:22:26;7.80;;;2.95;;
37971;SDS011;23794;48.234;8.344;2023-10-08T01:24:56;6.10;;;2.38;;
37971;SDS011;23794;48.234;8.344;2023-10-08T01:27:24;6.95;;;2.78;;
37971;SDS011;23794;48.234;8.344;2023-10-08T01:29:51;5.65;;;2.65;;
37971;SDS011;23794;48.234;8.344;2023-10-08T01:32:21;5.57;;;2.35;;
37971;SDS011;23794;48.234;8.344;2023-10-08T01:34:49;5.25;;;2.67;;
37971;SDS011;23794;48.234;8.344;2023-10-08T01:37:16;6.28;;;2.20;;
37971;SDS011;23794;48.234;8.344;2023-10-08T01:39:45;4.32;;;2.20;;
37971;SDS011;23794;48.234;8.344;2023-10-08T01:42:12;6.28;;;2.70;;
37971;SDS011;23794;48.234;8.344;2023-10-08T01:44:47;8.95;;;2.60;;
37971;SDS011;23794;48.234;8.344;2023-10-08T01:47:16;6.53;;;2.13;;
37971;SDS011;23794;48.234;8.344;2023-10-08T01:49:44;9.02;;;2.90;;
37971;SDS011;23794;48.234;8.344;2023-10-08T01:52:12;5.53;;;2.35;;
37971;SDS011;23794;48.234;8.344;2023-10-08T01:54:49;5.70;;;2.50;;
37971;SDS011;23794;48.234;8.344;2023-10-08T01:57:16;6.30;;;2.25;;
37971;SDS011;23794;48.234;8.344;2023-10-08T01:59:43;5.25;;;2.10;;
37971;SDS011;23794;48.234;8.344;2023-10-08T02:02:10;5.28;;;2.55;;
37971;SDS011;23794;48.234;8.344;2023-10-08T02:04:40;8.10;;;2.42;;
37971;SDS011;23794;48.234;8.344;2023-10-08T02:07:08;6.72;;;2.55;;
37971;SDS011;23794;48.234;8.344;2023-10-08T02:09:36;5.78;;;2.78;;
37971;SDS011;23794;48.234;8.344;2023-10-08T02:12:08;6.93;;;2.40;;
37971;SDS011;23794;48.234;8.344;2023-10-08T02:14:35;5.80;;;2.63;;
37971;SDS011;23794;48.234;8.344;2023-10-08T02:17:02;5.45;;;2.63;;
37971;SDS011;23794;48.234;8.344;2023-10-08T02:19:33;6.55;;;2.22;;
37971;SDS011;23794;48.234;8.344;2023-10-08T02:22:01;7.50;;;2.95;;
37971;SDS011;23794;48.234;8.344;2023-10-08T02:24:29;5.47;;;2.63;;
37971;SDS011;23794;48.234;8.344;2023-10-08T02:26:57;4.47;;;2.33;;
37971;SDS011;23794;48.234;8.344;2023-10-08T02:29:25;7.18;;;2.75;;
37971;SDS011;23794;48.234;8.344;2023-10-08T02:31:53;6.70;;;2.63;;
37971;SDS011;23794;48.234;8.344;2023-10-08T02:34:21;11.02;;;3.40;;
37971;SDS011;23794;48.234;8.344;2023-10-08T02:36:49;6.30;;;2.65;;
37971;SDS011;23794;48.234;8.344;2023-10-08T02:39:18;8.30;;;2.55;;
37971;SDS011;23794;48.234;8.344;2023-10-08T02:41:49;5.25;;;2.35;;
37971;SDS011;23794;48.234;8.344;2023-10-08T02:44:16;5.88;;;2.38;;
37971;SDS011;23794;48.234;8.344;2023-10-08T02:46:44;7.85;;;2.72;;
37971;SDS011;23794;48.234;8.344;2023-10-08T02:49:15;5.90;;;2.17;;
37971;SDS011;23794;48.234;8.344;2023-10-08T02:51:47;7.95;;;2.38;;
37971;SDS011;23794;48.234;8.344;2023-10-08T02:54:17;7.88;;;3.97;;
37971;SDS011;23794;48.234;8.344;2023-10-08T02:56:46;6.97;;;2.60;;
37971;SDS011;23794;48.234;8.344;2023-10-08T02:59:18;7.00;;;2.78;;
37971;SDS011;23794;48.234;8.344;2023-10-08T03:01:49;4.68;;;2.33;;
37971;SDS011;23794;48.234;8.344;2023-10-08T03:04:16;8.05;;;2.63;;
37971;SDS011;23794;48.234;8.344;2023-10-08T03:06:46;4.68;;;2.38;;
37971;SDS011;23794;48.234;8.344;2023-10-08T03:09:17;4.45;;;2.22;;
37971;SDS011;23794;48.234;8.344;2023-10-08T03:11:49;6.18;;;2.50;;
37971;SDS011;23794;48.234;8.344;2023-10-08T03:14:18;4.95;;;2.75;;
37971;SDS011;23794;48.234;8.344;2023-10-08T03:16:50;5.45;;;2.47;;
37971;SDS011;23794;48.234;8.344;2023-10-08T03:19:19;5.72;;;2.97;;
37971;SDS011;23794;48.234;8.344;2023-10-08T03:21:47;5.68;;;2.40;;
37971;SDS011;23794;48.234;8.344;2023-10-08T03:24:17;6.70;;;2.78;;
37971;SDS011;23794;48.234;8.344;2023-10-08T03:27:04;4.82;;;2.20;;
37971;SDS011;23794;48.234;8.344;2023-10-08T03:29:47;5.22;;;2.42;;
37971;SDS011;23794;48.234;8.344;2023-10-08T03:32:14;7.93;;;2.25;;
37971;SDS011;23794;48.234;8.344;2023-10-08T03:34:46;7.45;;;2.90;;
37971;SDS011;23794;48.234;8.344;2023-10-08T03:37:19;7.35;;;3.22;;
37971;SDS011;23794;48.234;8.344;2023-10-08T03:39:48;5.35;;;2.35;;
37971;SDS011;23794;48.234;8.344;2023-10-08T03:44:52;5.00;;;2.47;;
37971;SDS011;23794;48.234;8.344;2023-10-08T03:47:22;6.60;;;2.63;;
37971;SDS011;23794;48.234;8.344;2023-10-08T03:49:49;6.53;;;2.28;;
37971;SDS011;23794;48.234;8.344;2023-10-08T03:52:18;3.75;;;1.88;;
37971;SDS011;23794;48.234;8.344;2023-10-08T03:54:52;5.20;;;2.45;;
37971;SDS011;23794;48.234;8.344;2023-10-08T03:57:46;4.47;;;1.90;;
37971;SDS011;23794;48.234;8.344;2023-10-08T04:00:15;4.43;;;2.10;;
37971;SDS011;23794;48.234;8.344;2023-10-08T04:02:45;4.23;;;2.20;;
37971;SDS011;23794;48.234;8.344;2023-10-08T04:05:22;6.70;;;2.40;;
37971;SDS011;23794;48.234;8.344;2023-10-08T04:07:59;4.45;;;2.30;;
37971;SDS011;23794;48.234;8.344;2023-10-08T04:10:29;7.60;;;2.55;;
37971;SDS011;23794;48.234;8.344;2023-10-08T04:13:09;8.02;;;2.28;;
37971;SDS011;23794;48.234;8.344;2023-10-08T04:15:36;14.32;;;2.40;;
37971;SDS011;23794;48.234;8.344;2023-10-08T04:18:11;4.43;;;2.03;;
37971;SDS011;23794;48.234;8.344;2023-10-08T04:20:40;4.15;;;1.50;;
37971;SDS011;23794;48.234;8.344;2023-10-08T04:23:25;5.57;;;2.33;;
37971;SDS011;23794;48.234;8.344;2023-10-08T04:25:52;4.90;;;2.38;;
37971;SDS011;23794;48.234;8.344;2023-10-08T04:28:22;5.45;;;2.03;;
37971;SDS011;23794;48.234;8.344;2023-10-08T04:30:55;6.20;;;2.38;;
37971;SDS011;23794;48.234;8.344;2023-10-08T04:33:27;7.07;;;2.78;;
37971;SDS011;23794;48.234;8.344;2023-10-08T04:36:01;6.75;;;3.28;;
37971;SDS011;23794;48.234;8.344;2023-10-08T04:38:29;9.02;;;3.33;;
37971;SDS011;23794;48.234;8.344;2023-10-08T04:40:56;5.80;;;2.55;;
37971;SDS011;23794;48.234;8.344;2023-10-08T04:43:28;4.95;;;2.25;;
37971;SDS011;23794;48.234;8.344;2023-10-08T04:45:57;6.53;;;2.30;;
37971;SDS011;23794;48.234;8.344;2023-10-08T04:48:26;5.13;;;2.30;;
37971;SDS011;23794;48.234;8.344;2023-10-08T04:50:59;4.38;;;2.17;;
37971;SDS011;23794;48.234;8.344;2023-10-08T04:53:29;5.68;;;2.67;;
37971;SDS011;23794;48.234;8.344;2023-10-08T04:56:08;8.02;;;2.40;;
37971;SDS011;23794;48.234;8.344;2023-10-08T04:58:44;8.05;;;2.70;;
37971;SDS011;23794;48.234;8.344;2023-10-08T05:01:16;5.05;;;2.03;;
37971;SDS011;23794;48.234;8.344;2023-10-08T05:03:46;5.30;;;2.28;;
37971;SDS011;23794;48.234;8.344;2023-10-08T05:06:26;5.18;;;1.92;;
37971;SDS011;23794;48.234;8.344;2023-10-08T05:09:04;5.88;;;2.10;;
37971;SDS011;23794;48.234;8.344;2023-10-08T05:11:47;4.65;;;1.95;;
37971;SDS011;23794;48.234;8.344;2023-10-08T05:14:18;6.88;;;2.50;;
37971;SDS011;23794;48.234;8.344;2023-10-08T05:17:03;4.45;;;2.55;;
37971;SDS011;23794;48.234;8.344;2023-10-08T05:19:45;4.95;;;2.40;;
37971;SDS011;23794;48.234;8.344;2023-10-08T05:22:15;6.95;;;2.45;;
37971;SDS011;23794;48.234;8.344;2023-10-08T05:25:04;4.70;;;2.00;;
37971;SDS011;23794;48.234;8.344;2023-10-08T05:27:35;5.38;;;2.20;;
37971;SDS011;23794;48.234;8.344;2023-10-08T05:30:12;4.50;;;2.25;;
37971;SDS011;23794;48.234;8.344;2023-10-08T05:32:43;6.05;;;2.47;;
37971;SDS011;23794;48.234;8.344;2023-10-08T05:35:29;7.28;;;2.75;;
37971;SDS011;23794;48.234;8.344;2023-10-08T05:38:05;4.90;;;1.77;;
37971;SDS011;23794;48.234;8.344;2023-10-08T05:40:51;5.80;;;2.42;;
37971;SDS011;23794;48.234;8.344;2023-10-08T05:43:29;5.78;;;2.72;;
37971;SDS011;23794;48.234;8.344;2023-10-08T05:46:04;5.25;;;2.20;;
37971;SDS011;23794;48.234;8.344;2023-10-08T05:48:54;7.28;;;2.03;;
37971;SDS011;23794;48.234;8.344;2023-10-08T05:51:35;5.45;;;2.03;;
37971;SDS011;23794;48.234;8.344;2023-10-08T05:54:15;5.13;;;2.47;;
37971;SDS011;23794;48.234;8.344;2023-10-08T05:57:06;5.68;;;2.53;;
37971;SDS011;23794;48.234;8.344;2023-10-08T06:02:06;4.65;;;2.00;;
37971;SDS011;23794;48.234;8.344;2023-10-08T06:04:56;7.07;;;2.50;;
37971;SDS011;23794;48.234;8.344;2023-10-08T06:07:40;10.43;;;2.45;;
37971;SDS011;23794;48.234;8.344;2023-10-08T06:10:28;7.57;;;2.50;;
37971;SDS011;23794;48.234;8.344;2023-10-08T06:15:39;9.98;;;2.53;;
37971;SDS011;23794;48.234;8.344;2023-10-08T06:18:26;5.13;;;2.50;;
37971;SDS011;23794;48.234;8.344;2023-10-08T06:21:00;5.63;;;2.58;;
37971;SDS011;23794;48.234;8.344;2023-10-08T06:23:35;6.47;;;2.38;;
37971;SDS011;23794;48.234;8.344;2023-10-08T06:26:03;5.88;;;2.35;;
37971;SDS011;23794;48.234;8.344;2023-10-08T06:28:37;4.68;;;2.00;;
37971;SDS011;23794;48.234;8.344;2023-10-08T06:31:05;5.20;;;1.60;;
37971;SDS011;23794;48.234;8.344;2023-10-08T06:33:43;4.00;;;1.40;;
37971;SDS011;23794;48.234;8.344;2023-10-08T06:36:11;4.30;;;1.73;;
37971;SDS011;23794;48.234;8.344;2023-10-08T06:38:39;3.50;;;1.65;;
37971;SDS011;23794;48.234;8.344;2023-10-08T06:41:08;3.17;;;1.55;;
37971;SDS011;23794;48.234;8.344;2023-10-08T06:43:44;4.47;;;1.75;;
37971;SDS011;23794;48.234;8.344;2023-10-08T06:46:29;4.43;;;1.75;;
37971;SDS011;23794;48.234;8.344;2023-10-08T06:48:59;7.60;;;2.35;;
37971;SDS011;23794;48.234;8.344;2023-10-08T06:51:30;6.10;;;1.52;;
37971;SDS011;23794;48.234;8.344;2023-10-08T06:54:00;4.47;;;1.67;;
37971;SDS011;23794;48.234;8.344;2023-10-08T06:56:29;4.85;;;2.20;;
37971;SDS011;23794;48.234;8.344;2023-10-08T06:58:58;3.28;;;1.40;;
37971;SDS011;23794;48.234;8.344;2023-10-08T07:01:29;5.18;;;2.10;;
37971;SDS011;23794;48.234;8.344;2023-10-08T07:04:06;4.47;;;1.80;;
37971;SDS011;23794;48.234;8.344;2023-10-08T07:06:42;4.43;;;1.95;;
37971;SDS011;23794;48.234;8.344;2023-10-08T07:09:17;4.72;;;1.98;;
37971;SDS011;23794;48.234;8.344;2023-10-08T07:11:54;5.60;;;1.85;;
37971;SDS011;23794;48.234;8.344;2023-10-08T07:14:24;4.17;;;1.97;;
37971;SDS011;23794;48.234;8.344;2023-10-08T07:16:54;5.05;;;1.70;;
37971;SDS011;23794;48.234;8.344;2023-10-08T07:19:29;3.45;;;1.90;;
37971;SDS011;23794;48.234;8.344;2023-10-08T07:22:00;4.32;;;1.98;;
37971;SDS011;23794;48.234;8.344;2023-10-08T07:24:31;6.68;;;1.90;;
37971;SDS011;23794;48.234;8.344;2023-10-08T07:27:04;3.97;;;1.75;;
37971;SDS011;23794;48.234;8.344;2023-10-08T07:29:35;5.00;;;2.10;;
37971;SDS011;23794;48.234;8.344;2023-10-08T07:32:03;6.53;;;2.03;;
37971;SDS011;23794;48.234;8.344;2023-10-08T07:34:41;8.45;;;2.25;;
37971;SDS011;23794;48.234;8.344;2023-10-08T07:37:10;4.53;;;2.10;;
37971;SDS011;23794;48.234;8.344;2023-10-08T07:39:38;5.28;;;1.70;;
37971;SDS011;23794;48.234;8.344;2023-10-08T07:42:16;5.95;;;2.45;;
37971;SDS011;23794;48.234;8.344;2023-10-08T07:44:43;9.93;;;2.38;;
37971;SDS011;23794;48.234;8.344;2023-10-08T07:47:10;5.03;;;2.15;;
37971;SDS011;23794;48.234;8.344;2023-10-08T07:49:39;4.60;;;1.95;;
37971;SDS011;23794;48.234;8.344;2023-10-08T07:52:06;6.25;;;2.38;;
37971;SDS011;23794;48.234;8.344;2023-10-08T07:54:33;6.28;;;2.30;;
37971;SDS011;23794;48.234;8.344;2023-10-08T07:57:03;5.95;;;1.80;;
37971;SDS011;23794;48.234;8.344;2023-10-08T07:59:38;8.25;;;2.10;;
37971;SDS011;23794;48.234;8.344;2023-10-08T08:02:17;3.65;;;2.00;;
37971;SDS011;23794;48.234;8.344;2023-10-08T08:04:50;5.32;;;1.92;;
37971;SDS011;23794;48.234;8.344;2023-10-08T08:07:19;6.97;;;1.90;;
37971;SDS011;23794;48.234;8.344;2023-10-08T08:09:47;5.32;;;1.98;;
37971;SDS011;23794;48.234;8.344;2023-10-08T08:12:25;6.53;;;2.20;;
37971;SDS011;23794;48.234;8.344;2023-10-08T08:14:55;5.03;;;1.65;;
37971;SDS011;23794;48.234;8.344;2023-10-08T08:17:22;8.00;;;2.30;;
37971;SDS011;23794;48.234;8.344;2023-10-08T08:19:51;5.47;;;2.03;;
37971;SDS011;23794;48.234;8.344;2023-10-08T08:22:20;8.02;;;2.50;;
37971;SDS011;23794;48.234;8.344;2023-10-08T08:24:54;8.27;;;2.95;;
37971;SDS011;23794;48.234;8.344;2023-10-08T08:27:25;6.00;;;2.50;;
37971;SDS011;23794;48.234;8.344;2023-10-08T08:29:58;5.70;;;3.42;;
37971;SDS011;23794;48.234;8.344;2023-10-08T08:32:37;8.68;;;3.05;;
37971;SDS011;23794;48.234;8.344;2023-10-08T08:35:10;9.77;;;2.95;;
37971;SDS011;23794;48.234;8.344;2023-10-08T08:37:38;12.65;;;3.17;;
37971;SDS011;23794;48.234;8.344;2023-10-08T08:40:06;8.18;;;3.00;;
37971;SDS011;23794;48.234;8.344;2023-10-08T08:42:48;9.10;;;3.10;;
37971;SDS011;23794;48.234;8.344;2023-10-08T08:45:18;6.10;;;2.88;;
37971;SDS011;23794;48.234;8.344;2023-10-08T08:47:47;8.27;;;3.50;;
37971;SDS011;23794;48.234;8.344;2023-10-08T08:50:14;6.97;;;2.55;;
37971;SDS011;23794;48.234;8.344;2023-10-08T08:52:41;7.32;;;2.78;;
37971;SDS011;23794;48.234;8.344;2023-10-08T08:55:08;8.55;;;3.40;;
37971;SDS011;23794;48.234;8.344;2023-10-08T08:57:41;30.55;;;4.82;;
37971;SDS011;23794;48.234;8.344;2023-10-08T09:00:13;31.48;;;5.35;;
37971;SDS011;23794;48.234;8.344;2023-10-08T09:02:43;16.73;;;3.90;;
37971;SDS011;23794;48.234;8.344;2023-10-08T09:05:11;7.00;;;2.75;;
37971;SDS011;23794;48.234;8.344;2023-10-08T09:08:03;13.82;;;3.55;;
37971;SDS011;23794;48.234;8.344;2023-10-08T09:10:34;8.55;;;3.78;;
37971;SDS011;23794;48.234;8.344;2023-10-08T09:13:21;9.07;;;3.38;;
37971;SDS011;23794;48.234;8.344;2023-10-08T09:15:52;10.48;;;3.95;;
37971;SDS011;23794;48.234;8.344;2023-10-08T09:18:38;14.68;;;3.50;;
37971;SDS011;23794;48.234;8.344;2023-10-08T09:21:15;9.48;;;3.20;;
37971;SDS011;23794;48.234;8.344;2023-10-08T09:23:50;8.68;;;3.17;;
37971;SDS011;23794;48.234;8.344;2023-10-08T09:26:17;7.93;;;2.97;;
37971;SDS011;23794;48.234;8.344;2023-10-08T09:28:46;7.03;;;3.00;;
37971;SDS011;23794;48.234;8.344;2023-10-08T09:31:14;13.65;;;3.45;;
37971;SDS011;23794;48.234;8.344;2023-10-08T09:33:41;10.10;;;3.50;;
37971;SDS011;23794;48.234;8.344;2023-10-08T09:36:09;12.73;;;3.40;;
37971;SDS011;23794;48.234;8.344;2023-10-08T09:38:42;8.57;;;3.38;;
37971;SDS011;23794;48.234;8.344;2023-10-08T09:41:10;8.90;;;3.25;;
37971;SDS011;23794;48.234;8.344;2023-10-08T09:43:39;7.10;;;3.05;;
37971;SDS011;23794;48.234;8.344;2023-10-08T09:46:51;8.60;;;3.78;;
37971;SDS011;23794;48.234;8.344;2023-10-08T09:49:04;11.68;;;3.60;;
37971;SDS011;23794;48.234;8.344;2023-10-08T09:51:35;8.27;;;3.20;;
37971;SDS011;23794;48.234;8.344;2023-10-08T09:54:20;8.27;;;3.47;;
37971;SDS011;23794;48.234;8.344;2023-10-08T09:56:51;11.05;;;3.78;;
37971;SDS011;23794;48.234;8.344;2023-10-08T09:59:19;10.75;;;3.20;;
37971;SDS011;23794;48.234;8.344;2023-10-08T10:01:47;8.27;;;3.15;;
37971;SDS011;23794;48.234;8.344;2023-10-08T10:04:24;11.52;;;3.42;;
37971;SDS011;23794;48.234;8.344;2023-10-08T10:06:51;8.55;;;3.50;;
37971;SDS011;23794;48.234;8.344;2023-10-08T10:09:22;13.07;;;4.25;;
37971;SDS011;23794;48.234;8.344;2023-10-08T10:11:51;11.68;;;3.75;;
37971;SDS011;23794;48.234;8.344;2023-10-08T10:14:23;8.18;;;3.33;;
37971;SDS011;23794;48.234;8.344;2023-10-08T10:17:12;12.15;;;4.22;;
37971;SDS011;23794;48.234;8.344;2023-10-08T10:19:59;11.63;;;3.40;;
37971;SDS011;23794;48.234;8.344;2023-10-08T10:22:31;7.72;;;3.15;;
37971;SDS011;23794;48.234;8.344;2023-10-08T10:25:02;8.73;;;4.25;;
37971;SDS011;23794;48.234;8.344;2023-10-08T10:30:17;8.13;;;3.50;;
37971;SDS011;23794;48.234;8.344;2023-10-08T10:32:52;15.55;;;3.58;;
37971;SDS011;23794;48.234;8.344;2023-10-08T10:35:21;9.85;;;3.58;;
37971;SDS011;23794;48.234;8.344;2023-10-08T10:37:50;14.93;;;4.40;;
37971;SDS011;23794;48.234;8.344;2023-10-08T10:40:22;9.70;;;3.83;;
37971;SDS011;23794;48.234;8.344;2023-10-08T10:42:56;11.57;;;3.97;;
37971;SDS011;23794;48.234;8.344;2023-10-08T10:45:23;12.07;;;4.13;;
37971;SDS011;23794;48.234;8.344;2023-10-08T10:48:06;7.45;;;3.40;;
37971;SDS011;23794;48.234;8.344;2023-10-08T10:50:40;9.90;;;3.58;;
37971;SDS011;23794;48.234;8.344;2023-10-08T10:53:28;12.68;;;4.75;;
37971;SDS011;23794;48.234;8.344;2023-10-08T10:55:56;15.00;;;4.13;;
37971;SDS011;23794;48.234;8.344;2023-10-08T10:58:31;9.70;;;3.97;;
37971;SDS011;23794;48.234;8.344;2023-10-08T11:01:05;12.98;;;3.70;;
37971;SDS011;23794;48.234;8.344;2023-10-08T11:03:50;11.25;;;3.55;;
37971;SDS011;23794;48.234;8.344;2023-10-08T11:06:24;11.52;;;3.53;;
37971;SDS011;23794;48.234;8.344;2023-10-08T11:08:52;12.63;;;4.10;;
37971;SDS011;23794;48.234;8.344;2023-10-08T11:11:25;11.50;;;3.63;;
37971;SDS011;23794;48.234;8.344;2023-10-08T11:13:59;11.38;;;4.25;;
37971;SDS011;23794;48.234;8.344;2023-10-08T11:16:27;8.57;;;4.20;;
37971;SDS011;23794;48.234;8.344;2023-10-08T11:18:58;8.85;;;3.65;;
37971;SDS011;23794;48.234;8.344;2023-10-08T11:21:28;12.43;;;4.03;;
37971;SDS011;23794;48.234;8.344;2023-10-08T11:24:00;14.55;;;4.55;;
37971;SDS011;23794;48.234;8.344;2023-10-08T11:26:35;14.35;;;4.60;;
37971;SDS011;23794;48.234;8.344;2023-10-08T11:29:06;13.18;;;4.57;;
37971;SDS011;23794;48.234;8.344;2023-10-08T11:31:41;11.55;;;4.30;;
37971;SDS011;23794;48.234;8.344;2023-10-08T11:34:10;11.05;;;3.95;;
37971;SDS011;23794;48.234;8.344;2023-10-08T11:36:40;12.60;;;4.43;;
37971;SDS011;23794;48.234;8.344;2023-10-08T11:39:20;13.07;;;4.90;;
37971;SDS011;23794;48.234;8.344;2023-10-08T11:44:23;16.33;;;4.22;;
37971;SDS011;23794;48.234;8.344;2023-10-08T11:46:56;11.68;;;4.32;;
37971;SDS011;23794;48.234;8.344;2023-10-08T11:49:31;17.70;;;3.85;;
37971;SDS011;23794;48.234;8.344;2023-10-08T11:52:02;10.77;;;4.00;;
37971;SDS011;23794;48.234;8.344;2023-10-08T11:54:30;11.13;;;3.72;;
37971;SDS011;23794;48.234;8.344;2023-10-08T11:56:59;15.98;;;4.72;;
37971;SDS011;23794;48.234;8.344;2023-10-08T11:59:29;18.80;;;4.47;;
37971;SDS011;23794;48.234;8.344;2023-10-08T12:01:56;19.50;;;4.18;;
37971;SDS011;23794;48.234;8.344;2023-10-08T12:04:23;15.10;;;3.85;;
37971;SDS011;23794;48.234;8.344;2023-10-08T12:06:50;20.33;;;4.55;;
37971;SDS011;23794;48.234;8.344;2023-10-08T12:09:18;13.73;;;4.20;;
37971;SDS011;23794;48.234;8.344;2023-10-08T12:11:48;16.92;;;4.65;;
37971;SDS011;23794;48.234;8.344;2023-10-08T12:14:15;12.20;;;4.00;;
37971;SDS011;23794;48.234;8.344;2023-10-08T12:16:42;16.88;;;4.20;;
37971;SDS011;23794;48.234;8.344;2023-10-08T12:19:12;10.77;;;4.03;;
37971;SDS011;23794;48.234;8.344;2023-10-08T12:21:42;19.13;;;4.50;;
37971;SDS011;23794;48.234;8.344;2023-10-08T12:24:13;14.05;;;3.80;;
37971;SDS011;23794;48.234;8.344;2023-10-08T12:26:41;15.45;;;5.28;;
37971;SDS011;23794;48.234;8.344;2023-10-08T12:29:13;18.33;;;4.53;;
37971;SDS011;23794;48.234;8.344;2023-10-08T12:31:46;12.63;;;4.25;;
37971;SDS011;23794;48.234;8.344;2023-10-08T12:34:14;14.30;;;3.95;;
37971;SDS011;23794;48.234;8.344;2023-10-08T12:36:41;22.75;;;5.30;;
37971;SDS011;23794;48.234;8.344;2023-10-08T12:39:09;21.33;;;5.43;;
37971;SDS011;23794;48.234;8.344;2023-10-08T12:41:42;18.80;;;4.93;;
37971;SDS011;23794;48.234;8.344;2023-10-08T12:44:11;16.50;;;4.00;;
37971;SDS011;23794;48.234;8.344;2023-10-08T12:46:40;19.83;;;4.10;;
37971;SDS011;23794;48.234;8.344;2023-10-08T12:49:10;21.27;;;4.95;;
37971;SDS011;23794;48.234;8.344;2023-10-08T12:51:37;15.15;;;4.68;;
37971;SDS011;23794;48.234;8.344;2023-10-08T12:54:08;19.20;;;5.20;;
37971;SDS011;23794;48.234;8.344;2023-10-08T12:56:38;15.90;;;4.60;;
37971;SDS011;23794;48.234;8.344;2023-10-08T12:59:12;13.57;;;4.88;;
37971;SDS011;23794;48.234;8.344;2023-10-08T13:01:50;14.85;;;4.30;;
37971;SDS011;23794;48.234;8.344;2023-10-08T13:04:23;16.70;;;4.75;;
37971;SDS011;23794;48.234;8.344;2023-10-08T13:07:02;19.33;;;5.32;;
37971;SDS011;23794;48.234;8.344;2023-10-08T13:09:29;16.27;;;5.97;;
37971;SDS011;23794;48.234;8.344;2023-10-08T13:12:03;19.38;;;4.53;;
37971;SDS011;23794;48.234;8.344;2023-10-08T13:14:31;20.40;;;5.00;;
37971;SDS011;23794;48.234;8.344;2023-10-08T13:19:29;16.42;;;4.65;;
37971;SDS011;23794;48.234;8.344;2023-10-08T13:22:01;15.75;;;4.45;;
37971;SDS011;23794;48.234;8.344;2023-10-08T13:24:33;17.30;;;4.78;;
37971;SDS011;23794;48.234;8.344;2023-10-08T13:27:02;15.43;;;4.53;;
37971;SDS011;23794;48.234;8.344;2023-10-08T13:29:32;18.97;;;4.93;;
37971;SDS011;23794;48.234;8.344;2023-10-08T13:32:00;24.10;;;5.07;;
37971;SDS011;23794;48.234;8.344;2023-10-08T13:34:28;16.58;;;5.22;;
37971;SDS011;23794;48.234;8.344;2023-10-08T13:36:55;13.48;;;4.32;;
37971;SDS011;23794;48.234;8.344;2023-10-08T13:39:22;19.17;;;5.78;;
37971;SDS011;23794;48.234;8.344;2023-10-08T13:41:49;15.15;;;4.53;;
37971;SDS011;23794;48.234;8.344;2023-10-08T13:44:18;12.85;;;4.15;;
37971;SDS011;23794;48.234;8.344;2023-10-08T13:46:56;12.75;;;3.80;;
37971;SDS011;23794;48.234;8.344;2023-10-08T13:49:25;20.17;;;5.10;;
37971;SDS011;23794;48.234;8.344;2023-10-08T13:51:56;14.52;;;4.53;;
37971;SDS011;23794;48.234;8.344;2023-10-08T13:54:23;13.55;;;4.55;;
37971;SDS011;23794;48.234;8.344;2023-10-08T13:56:56;17.70;;;4.97;;
37971;SDS011;23794;48.234;8.344;2023-10-08T13:59:25;13.07;;;4.15;;
37971;SDS011;23794;48.234;8.344;2023-10-08T14:01:52;14.57;;;4.80;;
37971;SDS011;23794;48.234;8.344;2023-10-08T14:04:21;15.68;;;4.53;;
37971;SDS011;23794;48.234;8.344;2023-10-08T14:06:57;23.33;;;4.93;;
37971;SDS011;23794;48.234;8.344;2023-10-08T14:09:25;22.33;;;4.82;;
37971;SDS011;23794;48.234;8.344;2023-10-08T14:12:00;18.92;;;4.78;;
37971;SDS011;23794;48.234;8.344;2023-10-08T14:14:35;25.92;;;4.90;;
37971;SDS011;23794;48.234;8.344;2023-10-08T14:17:03;19.48;;;5.03;;
37971;SDS011;23794;48.234;8.344;2023-10-08T14:19:36;14.30;;;3.85;;
37971;SDS011;23794;48.234;8.344;2023-10-08T14:22:13;18.65;;;5.78;;
37971;SDS011;23794;48.234;8.344;2023-10-08T14:24:44;15.20;;;3.67;;
37971;SDS011;23794;48.234;8.344;2023-10-08T14:27:13;15.98;;;4.20;;
37971;SDS011;23794;48.234;8.344;2023-10-08T14:29:43;18.50;;;4.43;;
37971;SDS011;23794;48.234;8.344;2023-10-08T14:32:17;17.83;;;4.88;;
37971;SDS011;23794;48.234;8.344;2023-10-08T14:34:44;21.30;;;4.85;;
37971;SDS011;23794;48.234;8.344;2023-10-08T14:37:15;18.65;;;4.10;;
37971;SDS011;23794;48.234;8.344;2023-10-08T14:40:00;15.80;;;4.43;;
37971;SDS011;23794;48.234;8.344;2023-10-08T14:42:46;15.57;;;3.95;;
37971;SDS011;23794;48.234;8.344;2023-10-08T14:45:26;17.27;;;4.18;;
37971;SDS011;23794;48.234;8.344;2023-10-08T14:47:57;10.35;;;4.40;;
37971;SDS011;23794;48.234;8.344;2023-10-08T14:50:27;16.75;;;4.25;;
37971;SDS011;23794;48.234;8.344;2023-10-08T14:52:58;13.85;;;4.50;;
37971;SDS011;23794;48.234;8.344;2023-10-08T14:55:31;14.20;;;3.92;;
37971;SDS011;23794;48.234;8.344;2023-10-08T14:58:02;20.13;;;4.60;;
37971;SDS011;23794;48.234;8.344;2023-10-08T15:00:36;13.82;;;4.15;;
37971;SDS011;23794;48.234;8.344;2023-10-08T15:03:04;20.27;;;5.55;;
37971;SDS011;23794;48.234;8.344;2023-10-08T15:05:32;18.40;;;5.68;;
37971;SDS011;23794;48.234;8.344;2023-10-08T15:07:58;15.27;;;4.72;;
37971;SDS011;23794;48.234;8.344;2023-10-08T15:10:26;16.88;;;4.70;;
37971;SDS011;23794;48.234;8.344;2023-10-08T15:12:53;18.48;;;4.13;;
37971;SDS011;23794;48.234;8.344;2023-10-08T15:15:20;21.27;;;4.70;;
37971;SDS011;23794;48.234;8.344;2023-10-08T15:20:18;13.00;;;5.15;;
37971;SDS011;23794;48.234;8.344;2023-10-08T15:22:50;18.70;;;5.68;;
37971;SDS011;23794;48.234;8.344;2023-10-08T15:25:17;21.45;;;5.60;;
37971;SDS011;23794;48.234;8.344;2023-10-08T15:27:45;18.73;;;4.63;;
37971;SDS011;23794;48.234;8.344;2023-10-08T15:30:15;16.63;;;4.40;;
37971;SDS011;23794;48.234;8.344;2023-10-08T15:32:48;11.88;;;4.63;;
37971;SDS011;23794;48.234;8.344;2023-10-08T15:35:16;18.88;;;4.68;;